sensor_id;sensor_type;location;lat;lon;timestamp;pressure;altitude;pressure_sealevel;temperature;humidity
9538;BME280;4807;48.024;11.726;2023-05-01T00:00:34;94834.88;;;7.91;70.76
9538;BME280;4807;48.024;11.726;2023-05-01T00:03:45;94832.59;;;7.88;70.73
9538;BME280;4807;48.024;11.726;2023-05-01T00:06:53;94822.38;;;7.85;70.37
9538;BME280;4807;48.024;11.726;2023-05-01T00:10:03;94817.44;;;7.82;70.92
9538;BME280;4807;48.024;11.726;2023-05-01T00:13:14;94820.91;;;7.83;70.46
9538;BME280;4807;48.024;11.726;2023-05-01T00:16:24;94811.50;;;7.80;70.85
9538;BME280;4807;48.024;11.726;2023-05-01T00:19:34;94812.50;;;7.79;70.82
9538;BME280;4807;48.024;11.726;2023-05-01T00:22:43;94809.50;;;7.82;70.58
9538;BME280;4807;48.024;11.726;2023-05-01T00:25:52;94803.19;;;7.83;70.73
9538;BME280;4807;48.024;11.726;2023-05-01T00:29:00;94804.75;;;7.78;70.88
9538;BME280;4807;48.024;11.726;2023-05-01T00:32:09;94798.25;;;7.80;71.04
9538;BME280;4807;48.024;11.726;2023-05-01T00:35:19;94790.47;;;7.79;70.59
9538;BME280;4807;48.024;11.726;2023-05-01T00:38:28;94794.69;;;7.73;70.70
9538;BME280;4807;48.024;11.726;2023-05-01T00:41:36;94794.59;;;7.81;71.08
9538;BME280;4807;48.024;11.726;2023-05-01T00:44:45;94792.75;;;7.60;71.12
9538;BME280;4807;48.024;11.726;2023-05-01T00:47:53;94793.38;;;7.48;71.90
9538;BME280;4807;48.024;11.726;2023-05-01T00:51:05;94783.53;;;7.42;72.29
9538;BME280;4807;48.024;11.726;2023-05-01T00:54:14;94782.28;;;7.38;72.28
9538;BME280;4807;48.024;11.726;2023-05-01T00:57:24;94779.13;;;7.49;72.55
9538;BME280;4807;48.024;11.726;2023-05-01T01:00:33;94786.00;;;7.43;72.53
9538;BME280;4807;48.024;11.726;2023-05-01T01:03:42;94780.84;;;7.20;73.08
9538;BME280;4807;48.024;11.726;2023-05-01T01:06:59;94778.72;;;7.31;73.67
9538;BME280;4807;48.024;11.726;2023-05-01T01:10:17;94784.09;;;7.22;73.58
9538;BME280;4807;48.024;11.726;2023-05-01T01:13:30;94769.34;;;7.13;73.37
9538;BME280;4807;48.024;11.726;2023-05-01T01:16:44;94772.06;;;7.20;73.14
9538;BME280;4807;48.024;11.726;2023-05-01T01:20:21;94771.34;;;7.11;73.40
9538;BME280;4807;48.024;11.726;2023-05-01T01:24:04;94767.16;;;7.02;73.33
9538;BME280;4807;48.024;11.726;2023-05-01T01:31:14;94760.03;;;6.88;74.08
9538;BME280;4807;48.024;11.726;2023-05-01T01:34:29;94757.09;;;6.83;74.42
9538;BME280;4807;48.024;11.726;2023-05-01T01:37:42;94752.28;;;6.72;74.40
9538;BME280;4807;48.024;11.726;2023-05-01T01:40:57;94755.03;;;6.64;75.19
9538;BME280;4807;48.024;11.726;2023-05-01T01:44:10;94755.09;;;6.56;75.27
9538;BME280;4807;48.024;11.726;2023-05-01T01:47:23;94750.00;;;6.69;75.29
9538;BME280;4807;48.024;11.726;2023-05-01T01:50:36;94751.38;;;6.65;74.46
9538;BME280;4807;48.024;11.726;2023-05-01T01:53:51;94748.16;;;6.40;75.66
9538;BME280;4807;48.024;11.726;2023-05-01T01:57:02;94749.97;;;6.39;75.51
9538;BME280;4807;48.024;11.726;2023-05-01T02:00:12;94744.38;;;6.20;75.99
9538;BME280;4807;48.024;11.726;2023-05-01T02:03:30;94742.53;;;6.20;76.57
9538;BME280;4807;48.024;11.726;2023-05-01T02:06:43;94739.78;;;5.99;77.37
9538;BME280;4807;48.024;11.726;2023-05-01T02:09:54;94743.47;;;5.90;77.77
9538;BME280;4807;48.024;11.726;2023-05-01T02:13:05;94738.22;;;5.82;78.20
9538;BME280;4807;48.024;11.726;2023-05-01T02:16:15;94737.28;;;5.74;78.46
9538;BME280;4807;48.024;11.726;2023-05-01T02:19:25;94731.84;;;5.68;78.92
9538;BME280;4807;48.024;11.726;2023-05-01T02:22:36;94736.03;;;5.62;79.58
9538;BME280;4807;48.024;11.726;2023-05-01T02:25:47;94727.41;;;5.68;79.30
9538;BME280;4807;48.024;11.726;2023-05-01T02:28:56;94727.72;;;5.73;79.57
9538;BME280;4807;48.024;11.726;2023-05-01T02:32:05;94726.56;;;5.68;79.73
9538;BME280;4807;48.024;11.726;2023-05-01T02:35:14;94721.94;;;5.70;79.84
9538;BME280;4807;48.024;11.726;2023-05-01T02:38:26;94721.50;;;5.66;80.43
9538;BME280;4807;48.024;11.726;2023-05-01T02:41:38;94719.47;;;5.68;80.25
9538;BME280;4807;48.024;11.726;2023-05-01T02:44:53;94715.91;;;5.61;79.72
9538;BME280;4807;48.024;11.726;2023-05-01T02:48:05;94704.34;;;5.62;80.29
9538;BME280;4807;48.024;11.726;2023-05-01T02:51:15;94698.72;;;5.65;79.79
9538;BME280;4807;48.024;11.726;2023-05-01T02:54:26;94701.53;;;5.64;79.87
9538;BME280;4807;48.024;11.726;2023-05-01T02:57:37;94692.19;;;5.53;80.27
9538;BME280;4807;48.024;11.726;2023-05-01T03:00:47;94692.13;;;5.61;80.51
9538;BME280;4807;48.024;11.726;2023-05-01T03:03:58;94690.47;;;5.60;80.29
9538;BME280;4807;48.024;11.726;2023-05-01T03:07:06;94689.59;;;5.45;80.93
9538;BME280;4807;48.024;11.726;2023-05-01T03:10:16;94699.66;;;5.27;80.97
9538;BME280;4807;48.024;11.726;2023-05-01T03:13:24;94696.03;;;5.51;80.08
9538;BME280;4807;48.024;11.726;2023-05-01T03:16:33;94697.97;;;5.57;79.67
9538;BME280;4807;48.024;11.726;2023-05-01T03:19:42;94696.25;;;5.41;80.03
9538;BME280;4807;48.024;11.726;2023-05-01T03:22:50;94693.78;;;5.40;80.45
9538;BME280;4807;48.024;11.726;2023-05-01T03:25:59;94685.31;;;5.44;80.52
9538;BME280;4807;48.024;11.726;2023-05-01T03:29:08;94688.63;;;5.46;79.82
9538;BME280;4807;48.024;11.726;2023-05-01T03:32:19;94688.66;;;5.38;80.10
9538;BME280;4807;48.024;11.726;2023-05-01T03:35:29;94688.16;;;5.43;80.06
9538;BME280;4807;48.024;11.726;2023-05-01T03:38:38;94690.09;;;5.49;80.14
9538;BME280;4807;48.024;11.726;2023-05-01T03:46:56;94685.75;;;5.33;80.58
9538;BME280;4807;48.024;11.726;2023-05-01T03:50:08;94682.75;;;5.36;79.94
9538;BME280;4807;48.024;11.726;2023-05-01T03:53:20;94683.34;;;5.46;79.89
9538;BME280;4807;48.024;11.726;2023-05-01T03:56:29;94677.72;;;5.49;79.81
9538;BME280;4807;48.024;11.726;2023-05-01T03:59:42;94681.56;;;5.61;78.46
9538;BME280;4807;48.024;11.726;2023-05-01T04:02:53;94678.06;;;5.46;79.50
9538;BME280;4807;48.024;11.726;2023-05-01T04:06:04;94679.47;;;5.34;79.70
9538;BME280;4807;48.024;11.726;2023-05-01T04:09:12;94679.94;;;5.37;79.74
9538;BME280;4807;48.024;11.726;2023-05-01T04:12:20;94679.81;;;5.31;79.92
9538;BME280;4807;48.024;11.726;2023-05-01T04:15:28;94681.13;;;5.35;79.82
9538;BME280;4807;48.024;11.726;2023-05-01T04:18:38;94674.97;;;5.43;79.59
9538;BME280;4807;48.024;11.726;2023-05-01T04:21:47;94677.72;;;5.49;79.36
9538;BME280;4807;48.024;11.726;2023-05-01T04:24:55;94684.91;;;5.55;79.03
9538;BME280;4807;48.024;11.726;2023-05-01T04:28:04;94677.88;;;5.70;77.78
9538;BME280;4807;48.024;11.726;2023-05-01T04:31:13;94671.66;;;5.63;78.68
9538;BME280;4807;48.024;11.726;2023-05-01T04:34:22;94682.31;;;5.70;78.45
9538;BME280;4807;48.024;11.726;2023-05-01T04:37:35;94681.31;;;5.94;77.75
9538;BME280;4807;48.024;11.726;2023-05-01T04:40:43;94682.47;;;6.14;76.77
9538;BME280;4807;48.024;11.726;2023-05-01T04:43:52;94673.25;;;6.25;77.20
9538;BME280;4807;48.024;11.726;2023-05-01T04:47:01;94686.50;;;6.39;76.74
9538;BME280;4807;48.024;11.726;2023-05-01T04:50:11;94673.53;;;6.59;75.66
9538;BME280;4807;48.024;11.726;2023-05-01T04:53:20;94677.28;;;6.79;75.07
9538;BME280;4807;48.024;11.726;2023-05-01T04:56:29;94681.16;;;6.98;75.27
9538;BME280;4807;48.024;11.726;2023-05-01T04:59:40;94676.19;;;7.24;74.52
9538;BME280;4807;48.024;11.726;2023-05-01T05:02:49;94672.81;;;7.52;73.98
9538;BME280;4807;48.024;11.726;2023-05-01T05:05:59;94675.09;;;7.76;73.67
9538;BME280;4807;48.024;11.726;2023-05-01T05:09:07;94665.59;;;7.88;72.63
9538;BME280;4807;48.024;11.726;2023-05-01T05:12:17;94673.47;;;8.03;70.85
9538;BME280;4807;48.024;11.726;2023-05-01T05:15:25;94678.56;;;8.04;70.62
9538;BME280;4807;48.024;11.726;2023-05-01T05:18:33;94670.09;;;8.16;70.08
9538;BME280;4807;48.024;11.726;2023-05-01T05:21:43;94674.56;;;8.36;70.38
9538;BME280;4807;48.024;11.726;2023-05-01T05:24:52;94674.75;;;8.69;69.70
9538;BME280;4807;48.024;11.726;2023-05-01T05:28:01;94671.22;;;8.97;69.45
9538;BME280;4807;48.024;11.726;2023-05-01T05:31:10;94676.22;;;9.19;68.64
9538;BME280;4807;48.024;11.726;2023-05-01T05:34:18;94672.25;;;9.56;67.75
9538;BME280;4807;48.024;11.726;2023-05-01T05:37:28;94685.19;;;9.92;66.46
9538;BME280;4807;48.024;11.726;2023-05-01T05:40:36;94683.16;;;10.14;66.20
9538;BME280;4807;48.024;11.726;2023-05-01T05:43:45;94686.03;;;10.39;65.38
9538;BME280;4807;48.024;11.726;2023-05-01T05:46:53;94682.78;;;10.44;64.52
9538;BME280;4807;48.024;11.726;2023-05-01T05:50:09;94681.94;;;10.69;64.03
9538;BME280;4807;48.024;11.726;2023-05-01T05:53:21;94685.56;;;10.88;62.90
9538;BME280;4807;48.024;11.726;2023-05-01T05:56:32;94683.09;;;10.93;62.25
9538;BME280;4807;48.024;11.726;2023-05-01T05:59:41;94685.22;;;11.29;60.36
9538;BME280;4807;48.024;11.726;2023-05-01T06:02:52;94690.00;;;11.52;60.68
9538;BME280;4807;48.024;11.726;2023-05-01T06:06:04;94688.41;;;11.44;60.46
9538;BME280;4807;48.024;11.726;2023-05-01T06:09:15;94680.28;;;11.71;60.04
9538;BME280;4807;48.024;11.726;2023-05-01T06:12:25;94684.59;;;11.72;59.09
9538;BME280;4807;48.024;11.726;2023-05-01T06:15:34;94680.69;;;11.68;59.96
9538;BME280;4807;48.024;11.726;2023-05-01T06:18:44;94688.94;;;11.60;60.16
9538;BME280;4807;48.024;11.726;2023-05-01T06:21:53;94691.13;;;11.82;60.02
9538;BME280;4807;48.024;11.726;2023-05-01T06:25:04;94687.59;;;11.89;59.20
9538;BME280;4807;48.024;11.726;2023-05-01T06:28:15;94686.69;;;12.01;58.86
9538;BME280;4807;48.024;11.726;2023-05-01T06:31:24;94682.91;;;12.15;58.94
9538;BME280;4807;48.024;11.726;2023-05-01T06:34:35;94672.81;;;12.42;58.48
9538;BME280;4807;48.024;11.726;2023-05-01T06:37:44;94686.63;;;12.39;58.62
9538;BME280;4807;48.024;11.726;2023-05-01T06:40:55;94677.84;;;12.75;57.46
9538;BME280;4807;48.024;11.726;2023-05-01T06:44:04;94688.13;;;12.96;58.33
9538;BME280;4807;48.024;11.726;2023-05-01T06:47:14;94689.28;;;13.25;57.27
9538;BME280;4807;48.024;11.726;2023-05-01T06:50:23;94688.19;;;12.72;58.66
9538;BME280;4807;48.024;11.726;2023-05-01T06:53:32;94686.19;;;12.85;60.03
9538;BME280;4807;48.024;11.726;2023-05-01T06:56:43;94682.19;;;12.51;59.02
9538;BME280;4807;48.024;11.726;2023-05-01T06:59:52;94685.56;;;13.45;58.51
9538;BME280;4807;48.024;11.726;2023-05-01T07:03:03;94679.53;;;14.09;55.34
9538;BME280;4807;48.024;11.726;2023-05-01T07:06:12;94693.69;;;13.68;56.10
9538;BME280;4807;48.024;11.726;2023-05-01T07:09:21;94685.06;;;12.93;59.80
9538;BME280;4807;48.024;11.726;2023-05-01T07:12:32;94685.78;;;13.43;58.33
9538;BME280;4807;48.024;11.726;2023-05-01T07:15:40;94687.66;;;14.56;55.82
9538;BME280;4807;48.024;11.726;2023-05-01T07:18:49;94689.84;;;14.05;56.86
9538;BME280;4807;48.024;11.726;2023-05-01T07:21:57;94683.03;;;14.51;55.23
9538;BME280;4807;48.024;11.726;2023-05-01T07:25:07;94675.53;;;14.53;54.61
9538;BME280;4807;48.024;11.726;2023-05-01T07:28:17;94679.41;;;14.80;54.21
9538;BME280;4807;48.024;11.726;2023-05-01T07:31:27;94680.44;;;14.68;54.71
9538;BME280;4807;48.024;11.726;2023-05-01T07:34:36;94676.47;;;14.47;55.16
9538;BME280;4807;48.024;11.726;2023-05-01T07:37:44;94692.13;;;14.73;54.49
9538;BME280;4807;48.024;11.726;2023-05-01T07:40:52;94685.66;;;13.68;56.82
9538;BME280;4807;48.024;11.726;2023-05-01T07:44:03;94684.84;;;12.94;59.34
9538;BME280;4807;48.024;11.726;2023-05-01T07:47:11;94680.19;;;13.45;59.17
9538;BME280;4807;48.024;11.726;2023-05-01T07:50:20;94682.16;;;13.38;58.45
9538;BME280;4807;48.024;11.726;2023-05-01T07:53:28;94687.19;;;13.27;59.13
9538;BME280;4807;48.024;11.726;2023-05-01T07:56:36;94700.94;;;13.79;58.18
9538;BME280;4807;48.024;11.726;2023-05-01T07:59:52;94687.69;;;13.84;57.39
9538;BME280;4807;48.024;11.726;2023-05-01T08:03:01;94703.19;;;13.64;59.40
9538;BME280;4807;48.024;11.726;2023-05-01T08:06:10;94702.31;;;14.00;58.50
9538;BME280;4807;48.024;11.726;2023-05-01T08:09:18;94701.09;;;13.36;59.72
9538;BME280;4807;48.024;11.726;2023-05-01T08:12:27;94701.00;;;13.43;60.58
9538;BME280;4807;48.024;11.726;2023-05-01T08:15:38;94696.78;;;13.95;59.38
9538;BME280;4807;48.024;11.726;2023-05-01T08:18:48;94706.28;;;13.79;59.17
9538;BME280;4807;48.024;11.726;2023-05-01T08:21:58;94714.19;;;13.74;60.71
9538;BME280;4807;48.024;11.726;2023-05-01T08:25:07;94714.63;;;13.71;60.27
9538;BME280;4807;48.024;11.726;2023-05-01T08:28:15;94704.94;;;13.88;60.23
9538;BME280;4807;48.024;11.726;2023-05-01T08:31:25;94710.34;;;14.11;60.46
9538;BME280;4807;48.024;11.726;2023-05-01T08:34:33;94707.22;;;14.14;60.69
9538;BME280;4807;48.024;11.726;2023-05-01T08:37:42;94714.66;;;14.12;58.95
9538;BME280;4807;48.024;11.726;2023-05-01T08:40:52;94712.53;;;14.33;59.54
9538;BME280;4807;48.024;11.726;2023-05-01T08:44:03;94711.19;;;14.42;59.75
9538;BME280;4807;48.024;11.726;2023-05-01T08:47:16;94711.66;;;14.62;58.67
9538;BME280;4807;48.024;11.726;2023-05-01T08:50:26;94707.91;;;14.40;59.47
9538;BME280;4807;48.024;11.726;2023-05-01T08:53:36;94713.94;;;13.94;60.79
9538;BME280;4807;48.024;11.726;2023-05-01T08:56:46;94723.13;;;13.68;62.92
9538;BME280;4807;48.024;11.726;2023-05-01T08:59:56;94726.56;;;14.17;61.67
9538;BME280;4807;48.024;11.726;2023-05-01T09:03:10;94724.50;;;14.19;61.70
9538;BME280;4807;48.024;11.726;2023-05-01T09:06:20;94724.25;;;13.90;62.05
9538;BME280;4807;48.024;11.726;2023-05-01T09:09:30;94731.59;;;13.47;63.64
9538;BME280;4807;48.024;11.726;2023-05-01T09:12:41;94732.34;;;13.35;64.67
9538;BME280;4807;48.024;11.726;2023-05-01T09:15:50;94729.16;;;13.93;62.82
9538;BME280;4807;48.024;11.726;2023-05-01T09:19:01;94727.94;;;13.23;64.80
9538;BME280;4807;48.024;11.726;2023-05-01T09:22:09;94735.41;;;13.21;65.86
9538;BME280;4807;48.024;11.726;2023-05-01T09:25:18;94735.84;;;13.36;66.00
9538;BME280;4807;48.024;11.726;2023-05-01T09:28:39;94730.66;;;13.89;63.74
9538;BME280;4807;48.024;11.726;2023-05-01T09:31:48;94733.47;;;14.36;63.72
9538;BME280;4807;48.024;11.726;2023-05-01T09:35:11;94735.06;;;14.55;63.33
9538;BME280;4807;48.024;11.726;2023-05-01T09:38:22;94745.72;;;14.97;61.32
9538;BME280;4807;48.024;11.726;2023-05-01T09:41:31;94746.28;;;14.87;61.29
9538;BME280;4807;48.024;11.726;2023-05-01T09:44:40;94737.00;;;14.06;63.84
9538;BME280;4807;48.024;11.726;2023-05-01T09:47:51;94738.34;;;13.49;65.38
9538;BME280;4807;48.024;11.726;2023-05-01T09:51:19;94747.50;;;14.08;64.45
9538;BME280;4807;48.024;11.726;2023-05-01T09:54:28;94745.72;;;14.73;63.58
9538;BME280;4807;48.024;11.726;2023-05-01T09:57:36;94745.69;;;14.85;61.36
9538;BME280;4807;48.024;11.726;2023-05-01T10:00:47;94747.13;;;14.34;63.48
9538;BME280;4807;48.024;11.726;2023-05-01T10:03:56;94737.72;;;13.84;65.91
9538;BME280;4807;48.024;11.726;2023-05-01T10:07:13;94746.22;;;14.40;63.83
9538;BME280;4807;48.024;11.726;2023-05-01T10:10:21;94746.28;;;14.87;62.82
9538;BME280;4807;48.024;11.726;2023-05-01T10:13:30;94751.00;;;14.38;63.38
9538;BME280;4807;48.024;11.726;2023-05-01T10:16:38;94753.44;;;13.62;66.53
9538;BME280;4807;48.024;11.726;2023-05-01T10:19:47;94749.88;;;13.68;66.59
9538;BME280;4807;48.024;11.726;2023-05-01T10:22:59;94750.19;;;12.74;71.04
9538;BME280;4807;48.024;11.726;2023-05-01T10:26:12;94750.25;;;12.42;71.96
9538;BME280;4807;48.024;11.726;2023-05-01T10:29:23;94751.00;;;13.60;67.86
9538;BME280;4807;48.024;11.726;2023-05-01T10:32:31;94752.91;;;14.31;66.34
9538;BME280;4807;48.024;11.726;2023-05-01T10:35:46;94748.84;;;15.17;62.46
9538;BME280;4807;48.024;11.726;2023-05-01T10:38:56;94748.66;;;15.82;60.17
9538;BME280;4807;48.024;11.726;2023-05-01T10:42:06;94739.53;;;15.54;61.86
9538;BME280;4807;48.024;11.726;2023-05-01T10:45:29;94741.09;;;14.39;65.48
9538;BME280;4807;48.024;11.726;2023-05-01T10:48:56;94745.50;;;13.37;67.63
9538;BME280;4807;48.024;11.726;2023-05-01T10:52:04;94745.00;;;13.04;70.28
9538;BME280;4807;48.024;11.726;2023-05-01T10:55:33;94741.09;;;13.61;67.33
9538;BME280;4807;48.024;11.726;2023-05-01T10:58:57;94736.94;;;13.95;66.29
9538;BME280;4807;48.024;11.726;2023-05-01T11:02:21;94731.28;;;14.03;64.75
9538;BME280;4807;48.024;11.726;2023-05-01T11:06:05;94732.03;;;14.40;63.79
9538;BME280;4807;48.024;11.726;2023-05-01T11:09:38;94734.53;;;15.11;60.97
9538;BME280;4807;48.024;11.726;2023-05-01T11:12:49;94730.78;;;14.77;61.90
9538;BME280;4807;48.024;11.726;2023-05-01T11:19:46;94725.03;;;15.67;59.02
9538;BME280;4807;48.024;11.726;2023-05-01T11:22:58;94726.16;;;14.01;63.73
9538;BME280;4807;48.024;11.726;2023-05-01T11:26:07;94729.59;;;13.90;64.96
9538;BME280;4807;48.024;11.726;2023-05-01T11:29:17;94730.41;;;14.21;64.83
9538;BME280;4807;48.024;11.726;2023-05-01T11:32:27;94726.25;;;14.66;63.47
9538;BME280;4807;48.024;11.726;2023-05-01T11:35:36;94728.13;;;15.24;61.85
9538;BME280;4807;48.024;11.726;2023-05-01T11:38:52;94717.81;;;14.09;65.32
9538;BME280;4807;48.024;11.726;2023-05-01T11:42:06;94728.81;;;15.19;63.28
9538;BME280;4807;48.024;11.726;2023-05-01T11:45:18;94727.69;;;14.39;63.90
9538;BME280;4807;48.024;11.726;2023-05-01T11:48:30;94718.00;;;13.96;65.15
9538;BME280;4807;48.024;11.726;2023-05-01T11:51:39;94726.69;;;13.62;68.44
9538;BME280;4807;48.024;11.726;2023-05-01T11:54:47;94726.56;;;13.87;66.11
9538;BME280;4807;48.024;11.726;2023-05-01T11:57:56;94722.47;;;14.02;67.19
9538;BME280;4807;48.024;11.726;2023-05-01T12:01:06;94730.09;;;14.94;63.06
9538;BME280;4807;48.024;11.726;2023-05-01T12:04:24;94724.34;;;13.54;66.59
9538;BME280;4807;48.024;11.726;2023-05-01T12:07:38;94728.25;;;13.33;66.40
9538;BME280;4807;48.024;11.726;2023-05-01T12:10:48;94725.88;;;14.21;64.98
9538;BME280;4807;48.024;11.726;2023-05-01T12:13:57;94731.94;;;14.28;64.66
9538;BME280;4807;48.024;11.726;2023-05-01T12:17:07;94725.13;;;13.54;67.39
9538;BME280;4807;48.024;11.726;2023-05-01T12:20:34;94720.78;;;12.98;68.49
9538;BME280;4807;48.024;11.726;2023-05-01T12:23:43;94724.53;;;12.73;69.26
9538;BME280;4807;48.024;11.726;2023-05-01T12:26:59;94723.50;;;12.92;67.59
9538;BME280;4807;48.024;11.726;2023-05-01T12:30:10;94731.56;;;13.65;65.63
9538;BME280;4807;48.024;11.726;2023-05-01T12:33:20;94725.91;;;14.03;64.75
9538;BME280;4807;48.024;11.726;2023-05-01T12:36:32;94727.66;;;13.67;65.68
9538;BME280;4807;48.024;11.726;2023-05-01T12:39:42;94733.69;;;13.93;65.04
9538;BME280;4807;48.024;11.726;2023-05-01T12:42:56;94731.78;;;13.09;67.57
9538;BME280;4807;48.024;11.726;2023-05-01T12:46:12;94734.97;;;12.74;67.58
9538;BME280;4807;48.024;11.726;2023-05-01T12:49:23;94734.63;;;12.71;69.66
9538;BME280;4807;48.024;11.726;2023-05-01T12:52:32;94734.59;;;13.20;66.25
9538;BME280;4807;48.024;11.726;2023-05-01T12:55:45;94740.78;;;13.14;68.30
9538;BME280;4807;48.024;11.726;2023-05-01T12:58:54;94738.22;;;13.92;64.18
9538;BME280;4807;48.024;11.726;2023-05-01T13:02:06;94735.59;;;13.56;65.98
9538;BME280;4807;48.024;11.726;2023-05-01T13:05:16;94728.56;;;14.21;63.96
9538;BME280;4807;48.024;11.726;2023-05-01T13:08:27;94740.69;;;15.47;63.18
9538;BME280;4807;48.024;11.726;2023-05-01T13:11:37;94727.53;;;15.10;61.05
9538;BME280;4807;48.024;11.726;2023-05-01T13:14:46;94724.16;;;14.27;64.35
9538;BME280;4807;48.024;11.726;2023-05-01T13:18:03;94717.88;;;14.03;65.44
9538;BME280;4807;48.024;11.726;2023-05-01T13:21:15;94725.66;;;14.23;67.24
9538;BME280;4807;48.024;11.726;2023-05-01T13:24:36;94721.53;;;14.08;65.06
9538;BME280;4807;48.024;11.726;2023-05-01T13:27:48;94715.41;;;14.84;61.19
9538;BME280;4807;48.024;11.726;2023-05-01T13:30:57;94720.94;;;13.77;64.74
9538;BME280;4807;48.024;11.726;2023-05-01T13:34:05;94725.06;;;13.61;65.27
9538;BME280;4807;48.024;11.726;2023-05-01T13:37:16;94721.38;;;14.03;64.82
9538;BME280;4807;48.024;11.726;2023-05-01T13:40:26;94721.16;;;13.75;65.21
9538;BME280;4807;48.024;11.726;2023-05-01T13:43:35;94714.22;;;14.57;62.36
9538;BME280;4807;48.024;11.726;2023-05-01T13:46:44;94719.13;;;14.95;61.02
9538;BME280;4807;48.024;11.726;2023-05-01T13:49:54;94714.09;;;14.10;63.25
9538;BME280;4807;48.024;11.726;2023-05-01T13:53:05;94708.28;;;13.84;65.78
9538;BME280;4807;48.024;11.726;2023-05-01T13:56:14;94713.75;;;13.59;66.30
9538;BME280;4807;48.024;11.726;2023-05-01T13:59:23;94722.41;;;13.43;66.48
9538;BME280;4807;48.024;11.726;2023-05-01T14:02:31;94714.59;;;13.41;65.11
9538;BME280;4807;48.024;11.726;2023-05-01T14:05:40;94712.03;;;13.46;64.33
9538;BME280;4807;48.024;11.726;2023-05-01T14:08:51;94716.44;;;13.89;64.26
9538;BME280;4807;48.024;11.726;2023-05-01T14:12:00;94720.97;;;13.58;66.46
9538;BME280;4807;48.024;11.726;2023-05-01T14:15:11;94720.94;;;13.77;64.32
9538;BME280;4807;48.024;11.726;2023-05-01T14:18:20;94715.06;;;13.86;62.33
9538;BME280;4807;48.024;11.726;2023-05-01T14:21:29;94720.78;;;13.71;64.59
9538;BME280;4807;48.024;11.726;2023-05-01T14:24:40;94718.88;;;13.60;65.01
9538;BME280;4807;48.024;11.726;2023-05-01T14:27:48;94721.09;;;13.63;64.52
9538;BME280;4807;48.024;11.726;2023-05-01T14:30:57;94718.38;;;13.70;64.37
9538;BME280;4807;48.024;11.726;2023-05-01T14:34:05;94718.72;;;14.03;63.27
9538;BME280;4807;48.024;11.726;2023-05-01T14:37:13;94718.88;;;14.20;60.09
9538;BME280;4807;48.024;11.726;2023-05-01T14:40:26;94726.13;;;14.31;61.52
9538;BME280;4807;48.024;11.726;2023-05-01T14:43:34;94722.03;;;14.17;60.94
9538;BME280;4807;48.024;11.726;2023-05-01T14:46:45;94722.91;;;13.99;61.65
9538;BME280;4807;48.024;11.726;2023-05-01T14:49:55;94725.16;;;13.84;61.91
9538;BME280;4807;48.024;11.726;2023-05-01T14:53:03;94724.06;;;13.73;61.71
9538;BME280;4807;48.024;11.726;2023-05-01T14:56:13;94728.25;;;13.51;63.26
9538;BME280;4807;48.024;11.726;2023-05-01T14:59:21;94726.09;;;13.42;64.48
9538;BME280;4807;48.024;11.726;2023-05-01T15:02:30;94728.25;;;13.33;64.88
9538;BME280;4807;48.024;11.726;2023-05-01T15:05:38;94724.88;;;13.74;63.51
9538;BME280;4807;48.024;11.726;2023-05-01T15:08:47;94727.81;;;14.02;63.86
9538;BME280;4807;48.024;11.726;2023-05-01T15:11:57;94732.75;;;14.29;60.61
9538;BME280;4807;48.024;11.726;2023-05-01T15:15:07;94731.69;;;14.48;60.03
9538;BME280;4807;48.024;11.726;2023-05-01T15:18:16;94727.78;;;14.32;60.24
9538;BME280;4807;48.024;11.726;2023-05-01T15:21:24;94727.50;;;14.10;60.96
9538;BME280;4807;48.024;11.726;2023-05-01T15:24:32;94733.09;;;14.21;61.74
9538;BME280;4807;48.024;11.726;2023-05-01T15:27:42;94734.06;;;14.26;61.51
9538;BME280;4807;48.024;11.726;2023-05-01T15:30:52;94737.88;;;14.19;60.86
9538;BME280;4807;48.024;11.726;2023-05-01T15:34:00;94745.03;;;14.06;61.51
9538;BME280;4807;48.024;11.726;2023-05-01T15:37:09;94748.03;;;13.98;61.73
9538;BME280;4807;48.024;11.726;2023-05-01T15:40:19;94748.47;;;13.95;62.23
9538;BME280;4807;48.024;11.726;2023-05-01T15:43:30;94746.56;;;13.84;62.60
9538;BME280;4807;48.024;11.726;2023-05-01T15:46:38;94750.81;;;13.73;63.10
9538;BME280;4807;48.024;11.726;2023-05-01T15:49:47;94747.72;;;13.58;64.19
9538;BME280;4807;48.024;11.726;2023-05-01T15:52:56;94744.31;;;13.51;64.27
9538;BME280;4807;48.024;11.726;2023-05-01T15:56:05;94759.31;;;13.34;65.62
9538;BME280;4807;48.024;11.726;2023-05-01T15:59:17;94756.72;;;13.27;66.25
9538;BME280;4807;48.024;11.726;2023-05-01T16:02:30;94763.44;;;13.30;66.17
9538;BME280;4807;48.024;11.726;2023-05-01T16:05:45;94764.47;;;13.11;67.96
9538;BME280;4807;48.024;11.726;2023-05-01T16:08:58;94759.94;;;13.11;68.38
9538;BME280;4807;48.024;11.726;2023-05-01T16:12:08;94766.38;;;13.04;69.64
9538;BME280;4807;48.024;11.726;2023-05-01T16:15:21;94772.47;;;13.11;69.95
9538;BME280;4807;48.024;11.726;2023-05-01T16:18:34;94776.16;;;13.16;70.60
9538;BME280;4807;48.024;11.726;2023-05-01T16:21:42;94772.69;;;13.09;70.96
9538;BME280;4807;48.024;11.726;2023-05-01T16:24:50;94777.44;;;12.82;71.47
9538;BME280;4807;48.024;11.726;2023-05-01T16:27:59;94781.66;;;12.96;72.06
9538;BME280;4807;48.024;11.726;2023-05-01T16:31:13;94780.13;;;12.82;73.21
9538;BME280;4807;48.024;11.726;2023-05-01T16:34:37;94781.59;;;12.78;73.88
9538;BME280;4807;48.024;11.726;2023-05-01T16:37:45;94779.91;;;12.59;75.98
9538;BME280;4807;48.024;11.726;2023-05-01T16:40:53;94780.56;;;12.54;75.61
9538;BME280;4807;48.024;11.726;2023-05-01T16:44:02;94774.09;;;12.69;76.33
9538;BME280;4807;48.024;11.726;2023-05-01T16:47:12;94784.97;;;12.67;76.34
9538;BME280;4807;48.024;11.726;2023-05-01T16:50:21;94781.13;;;12.63;77.29
9538;BME280;4807;48.024;11.726;2023-05-01T16:53:29;94789.13;;;12.63;77.27
9538;BME280;4807;48.024;11.726;2023-05-01T16:56:38;94788.19;;;12.51;78.32
9538;BME280;4807;48.024;11.726;2023-05-01T16:59:46;94786.59;;;12.43;79.01
9538;BME280;4807;48.024;11.726;2023-05-01T17:02:56;94791.25;;;12.23;79.45
9538;BME280;4807;48.024;11.726;2023-05-01T17:06:05;94787.88;;;12.34;79.36
9538;BME280;4807;48.024;11.726;2023-05-01T17:09:13;94794.69;;;11.99;80.91
9538;BME280;4807;48.024;11.726;2023-05-01T17:12:33;94795.22;;;12.14;80.49
9538;BME280;4807;48.024;11.726;2023-05-01T17:15:42;94804.50;;;12.05;81.80
9538;BME280;4807;48.024;11.726;2023-05-01T17:18:53;94800.84;;;11.93;81.98
9538;BME280;4807;48.024;11.726;2023-05-01T17:22:02;94796.81;;;11.77;82.79